Terminal Aerodrome Forecast
Issued by NWS

Home | Current Version | Previous Version | Text Only | Print | Product List | Glossary On
Versions: 1 2 3 4 5 6 7 8 9 10 11 12 13 14 15 16 17 18
000
FTUS46 KMTR 272300
TAFSNS
TAF
KSNS 272324Z 2800/2824 28012G18KT P6SM FEW020
     FM280400 28007KT P6SM BKN015
     FM281000 26004KT P6SM OVC012
     FM281200 VRB03KT P6SM OVC010
     FM281800 29014KT P6SM FEW012=

USA.gov is the U.S. government's official web portal to all federal, state and local government web resources and services.